Sainte Marie, Illinois
Current Conditions -  °F | °C
As of 8:55 PM on Tuesday 25 Nov 2014 (Local Time) from KOLY Reporting Station
Clear Clear  
Wind Chill: 28°   Ceiling: Unl
Heat Index: 28°   Visibility: 10mi
Dew Point: 25°   Wind: 0mph
Humidity: 86%   Direction: NA
Pressure: 30.22"   Gusts: NA
Location:  38.93°N, 88.02°W
Report Text: KOLY 260255Z AUTO 00000KT 10SM CLR M02/M04 A3022 RMK AO2
Loading
Personal Weather Stations






























Interactive Weather Map New forecast layout! Learn more

10-Day Weather Forecast

Advertisements
Track Severe Weather on mobile